sensor_id;sensor_type;location;lat;lon;timestamp;P1;durP1;ratioP1;P2;durP2;ratioP2
5319;SDS011;2682;49.800;9.990;2022-09-04T00:00:33;5.50;;;5.50;;
5319;SDS011;2682;49.800;9.990;2022-09-04T00:03:06;9.25;;;9.00;;
5319;SDS011;2682;49.800;9.990;2022-09-04T00:05:41;9.00;;;7.00;;
5319;SDS011;2682;49.800;9.990;2022-09-04T00:08:16;6.50;;;6.00;;
5319;SDS011;2682;49.800;9.990;2022-09-04T00:10:47;6.50;;;6.00;;
5319;SDS011;2682;49.800;9.990;2022-09-04T00:13:19;6.00;;;6.00;;
5319;SDS011;2682;49.800;9.990;2022-09-04T00:15:48;6.75;;;6.00;;
5319;SDS011;2682;49.800;9.990;2022-09-04T00:18:18;7.75;;;6.75;;
5319;SDS011;2682;49.800;9.990;2022-09-04T00:20:50;7.75;;;7.00;;
5319;SDS011;2682;49.800;9.990;2022-09-04T00:23:20;7.75;;;6.75;;
5319;SDS011;2682;49.800;9.990;2022-09-04T00:25:52;6.50;;;6.50;;
5319;SDS011;2682;49.800;9.990;2022-09-04T00:28:26;7.00;;;6.50;;
5319;SDS011;2682;49.800;9.990;2022-09-04T00:30:56;7.75;;;6.50;;
5319;SDS011;2682;49.800;9.990;2022-09-04T00:33:29;7.00;;;6.00;;
5319;SDS011;2682;49.800;9.990;2022-09-04T00:35:58;8.50;;;7.50;;
5319;SDS011;2682;49.800;9.990;2022-09-04T00:38:32;7.25;;;7.25;;
5319;SDS011;2682;49.800;9.990;2022-09-04T00:41:03;7.75;;;7.75;;
5319;SDS011;2682;49.800;9.990;2022-09-04T00:43:39;6.00;;;6.00;;
5319;SDS011;2682;49.800;9.990;2022-09-04T00:46:19;5.25;;;5.25;;
5319;SDS011;2682;49.800;9.990;2022-09-04T00:48:58;9.25;;;9.25;;
5319;SDS011;2682;49.800;9.990;2022-09-04T00:51:37;6.00;;;6.00;;
5319;SDS011;2682;49.800;9.990;2022-09-04T00:54:13;6.25;;;6.00;;
5319;SDS011;2682;49.800;9.990;2022-09-04T00:56:57;7.75;;;6.75;;
5319;SDS011;2682;49.800;9.990;2022-09-04T00:59:32;7.50;;;6.25;;
5319;SDS011;2682;49.800;9.990;2022-09-04T01:02:07;7.50;;;7.50;;
5319;SDS011;2682;49.800;9.990;2022-09-04T01:04:39;8.50;;;8.50;;
5319;SDS011;2682;49.800;9.990;2022-09-04T01:07:22;8.00;;;7.50;;
5319;SDS011;2682;49.800;9.990;2022-09-04T01:09:58;8.25;;;8.25;;
5319;SDS011;2682;49.800;9.990;2022-09-04T01:12:32;6.00;;;6.00;;
5319;SDS011;2682;49.800;9.990;2022-09-04T01:15:07;9.00;;;9.00;;
5319;SDS011;2682;49.800;9.990;2022-09-04T01:17:40;9.00;;;7.50;;
5319;SDS011;2682;49.800;9.990;2022-09-04T01:20:11;9.50;;;7.00;;
5319;SDS011;2682;49.800;9.990;2022-09-04T01:22:58;7.00;;;7.00;;
5319;SDS011;2682;49.800;9.990;2022-09-04T01:25:31;7.00;;;5.50;;
5319;SDS011;2682;49.800;9.990;2022-09-04T01:28:03;10.50;;;9.25;;
5319;SDS011;2682;49.800;9.990;2022-09-04T01:30:35;10.00;;;9.50;;
5319;SDS011;2682;49.800;9.990;2022-09-04T01:33:06;8.50;;;8.00;;
5319;SDS011;2682;49.800;9.990;2022-09-04T01:35:38;8.50;;;8.50;;
5319;SDS011;2682;49.800;9.990;2022-09-04T01:38:10;8.00;;;8.00;;
5319;SDS011;2682;49.800;9.990;2022-09-04T01:40:41;9.75;;;9.25;;
5319;SDS011;2682;49.800;9.990;2022-09-04T01:43:12;13.00;;;11.50;;
5319;SDS011;2682;49.800;9.990;2022-09-04T01:45:45;8.00;;;6.50;;
5319;SDS011;2682;49.800;9.990;2022-09-04T01:48:15;11.00;;;9.50;;
5319;SDS011;2682;49.800;9.990;2022-09-04T01:50:43;9.75;;;9.00;;
5319;SDS011;2682;49.800;9.990;2022-09-04T01:53:11;8.50;;;8.50;;
5319;SDS011;2682;49.800;9.990;2022-09-04T01:55:41;9.25;;;8.75;;
5319;SDS011;2682;49.800;9.990;2022-09-04T01:58:13;8.00;;;8.00;;
5319;SDS011;2682;49.800;9.990;2022-09-04T02:00:43;7.75;;;7.75;;
5319;SDS011;2682;49.800;9.990;2022-09-04T02:03:12;7.50;;;6.00;;
5319;SDS011;2682;49.800;9.990;2022-09-04T02:05:47;12.50;;;12.00;;
5319;SDS011;2682;49.800;9.990;2022-09-04T02:08:28;7.50;;;7.00;;
5319;SDS011;2682;49.800;9.990;2022-09-04T02:11:01;8.75;;;8.00;;
5319;SDS011;2682;49.800;9.990;2022-09-04T02:13:32;9.00;;;9.00;;
5319;SDS011;2682;49.800;9.990;2022-09-04T02:16:06;8.75;;;8.00;;
5319;SDS011;2682;49.800;9.990;2022-09-04T02:18:42;7.50;;;7.50;;
5319;SDS011;2682;49.800;9.990;2022-09-04T02:21:11;7.00;;;7.00;;
5319;SDS011;2682;49.800;9.990;2022-09-04T02:23:42;9.00;;;8.75;;
5319;SDS011;2682;49.800;9.990;2022-09-04T02:26:11;9.00;;;9.00;;
5319;SDS011;2682;49.800;9.990;2022-09-04T02:28:45;11.50;;;7.00;;
5319;SDS011;2682;49.800;9.990;2022-09-04T02:31:14;10.00;;;10.00;;
5319;SDS011;2682;49.800;9.990;2022-09-04T02:33:43;8.25;;;8.00;;
5319;SDS011;2682;49.800;9.990;2022-09-04T02:36:13;8.00;;;8.00;;
5319;SDS011;2682;49.800;9.990;2022-09-04T02:38:45;10.75;;;9.50;;
5319;SDS011;2682;49.800;9.990;2022-09-04T02:41:18;12.00;;;9.00;;
5319;SDS011;2682;49.800;9.990;2022-09-04T02:43:54;9.00;;;8.75;;
5319;SDS011;2682;49.800;9.990;2022-09-04T02:46:25;8.00;;;7.00;;
5319;SDS011;2682;49.800;9.990;2022-09-04T02:48:59;10.75;;;10.75;;
5319;SDS011;2682;49.800;9.990;2022-09-04T02:51:31;11.00;;;9.25;;
5319;SDS011;2682;49.800;9.990;2022-09-04T02:54:06;10.00;;;10.00;;
5319;SDS011;2682;49.800;9.990;2022-09-04T02:56:38;14.00;;;12.00;;
5319;SDS011;2682;49.800;9.990;2022-09-04T02:59:19;10.75;;;8.50;;
5319;SDS011;2682;49.800;9.990;2022-09-04T03:01:51;9.00;;;9.00;;
5319;SDS011;2682;49.800;9.990;2022-09-04T03:04:23;9.00;;;8.00;;
5319;SDS011;2682;49.800;9.990;2022-09-04T03:06:53;8.00;;;8.00;;
5319;SDS011;2682;49.800;9.990;2022-09-04T03:09:21;9.50;;;9.00;;
5319;SDS011;2682;49.800;9.990;2022-09-04T03:11:51;7.75;;;7.75;;
5319;SDS011;2682;49.800;9.990;2022-09-04T03:14:23;8.75;;;8.75;;
5319;SDS011;2682;49.800;9.990;2022-09-04T03:17:00;9.00;;;8.25;;
5319;SDS011;2682;49.800;9.990;2022-09-04T03:19:33;8.25;;;8.25;;
5319;SDS011;2682;49.800;9.990;2022-09-04T03:22:03;8.25;;;7.50;;
5319;SDS011;2682;49.800;9.990;2022-09-04T03:24:33;11.25;;;9.50;;
5319;SDS011;2682;49.800;9.990;2022-09-04T03:27:05;10.00;;;8.25;;
5319;SDS011;2682;49.800;9.990;2022-09-04T03:29:40;8.50;;;8.00;;
5319;SDS011;2682;49.800;9.990;2022-09-04T03:32:14;7.75;;;7.50;;
5319;SDS011;2682;49.800;9.990;2022-09-04T03:34:46;10.00;;;8.75;;
5319;SDS011;2682;49.800;9.990;2022-09-04T03:37:26;11.75;;;9.00;;
5319;SDS011;2682;49.800;9.990;2022-09-04T03:40:01;10.25;;;8.75;;
5319;SDS011;2682;49.800;9.990;2022-09-04T03:42:34;9.50;;;8.00;;
5319;SDS011;2682;49.800;9.990;2022-09-04T03:45:08;8.00;;;7.25;;
5319;SDS011;2682;49.800;9.990;2022-09-04T03:47:38;9.00;;;9.00;;
5319;SDS011;2682;49.800;9.990;2022-09-04T03:50:09;8.25;;;6.75;;
5319;SDS011;2682;49.800;9.990;2022-09-04T03:52:42;8.50;;;8.50;;
5319;SDS011;2682;49.800;9.990;2022-09-04T03:55:17;11.00;;;11.00;;
5319;SDS011;2682;49.800;9.990;2022-09-04T03:57:51;10.75;;;8.75;;
5319;SDS011;2682;49.800;9.990;2022-09-04T04:00:24;11.25;;;10.75;;
5319;SDS011;2682;49.800;9.990;2022-09-04T04:02:58;12.00;;;9.75;;
5319;SDS011;2682;49.800;9.990;2022-09-04T04:05:30;10.75;;;10.00;;
5319;SDS011;2682;49.800;9.990;2022-09-04T04:08:09;12.00;;;11.75;;
5319;SDS011;2682;49.800;9.990;2022-09-04T04:10:43;10.75;;;10.50;;
5319;SDS011;2682;49.800;9.990;2022-09-04T04:13:18;12.75;;;11.25;;
5319;SDS011;2682;49.800;9.990;2022-09-04T04:15:56;9.75;;;9.75;;
5319;SDS011;2682;49.800;9.990;2022-09-04T04:18:32;9.25;;;9.25;;
5319;SDS011;2682;49.800;9.990;2022-09-04T04:21:04;13.50;;;13.50;;
5319;SDS011;2682;49.800;9.990;2022-09-04T04:26:37;9.25;;;9.25;;
5319;SDS011;2682;49.800;9.990;2022-09-04T04:29:12;10.25;;;9.50;;
5319;SDS011;2682;49.800;9.990;2022-09-04T04:31:49;12.00;;;11.75;;
5319;SDS011;2682;49.800;9.990;2022-09-04T04:34:35;8.50;;;8.25;;
5319;SDS011;2682;49.800;9.990;2022-09-04T04:37:06;9.75;;;9.75;;
5319;SDS011;2682;49.800;9.990;2022-09-04T04:39:38;8.50;;;8.50;;
5319;SDS011;2682;49.800;9.990;2022-09-04T04:42:13;9.00;;;9.00;;
5319;SDS011;2682;49.800;9.990;2022-09-04T04:44:51;10.25;;;9.75;;
5319;SDS011;2682;49.800;9.990;2022-09-04T04:50:31;11.00;;;11.00;;
5319;SDS011;2682;49.800;9.990;2022-09-04T04:53:01;7.75;;;7.75;;
5319;SDS011;2682;49.800;9.990;2022-09-04T04:55:40;8.50;;;8.50;;
5319;SDS011;2682;49.800;9.990;2022-09-04T04:58:17;8.00;;;7.75;;
5319;SDS011;2682;49.800;9.990;2022-09-04T05:00:47;11.75;;;10.75;;
5319;SDS011;2682;49.800;9.990;2022-09-04T05:03:16;9.25;;;9.25;;
5319;SDS011;2682;49.800;9.990;2022-09-04T05:05:49;13.75;;;11.00;;
5319;SDS011;2682;49.800;9.990;2022-09-04T05:08:21;9.25;;;9.25;;
5319;SDS011;2682;49.800;9.990;2022-09-04T05:10:52;11.00;;;11.00;;
5319;SDS011;2682;49.800;9.990;2022-09-04T05:13:21;11.75;;;11.00;;
5319;SDS011;2682;49.800;9.990;2022-09-04T05:15:50;11.25;;;10.50;;
5319;SDS011;2682;49.800;9.990;2022-09-04T05:18:20;11.50;;;11.50;;
5319;SDS011;2682;49.800;9.990;2022-09-04T05:20:54;11.00;;;11.00;;
5319;SDS011;2682;49.800;9.990;2022-09-04T05:23:25;12.50;;;12.25;;
5319;SDS011;2682;49.800;9.990;2022-09-04T05:25:56;10.00;;;10.00;;
5319;SDS011;2682;49.800;9.990;2022-09-04T05:28:27;12.25;;;11.75;;
5319;SDS011;2682;49.800;9.990;2022-09-04T05:30:58;13.75;;;13.25;;
5319;SDS011;2682;49.800;9.990;2022-09-04T05:33:30;13.00;;;12.50;;
5319;SDS011;2682;49.800;9.990;2022-09-04T05:36:04;15.25;;;14.75;;
5319;SDS011;2682;49.800;9.990;2022-09-04T05:38:34;9.00;;;9.00;;
5319;SDS011;2682;49.800;9.990;2022-09-04T05:41:05;12.50;;;12.50;;
5319;SDS011;2682;49.800;9.990;2022-09-04T05:43:37;11.50;;;11.50;;
5319;SDS011;2682;49.800;9.990;2022-09-04T05:46:10;13.25;;;12.75;;
5319;SDS011;2682;49.800;9.990;2022-09-04T05:48:41;10.50;;;10.50;;
5319;SDS011;2682;49.800;9.990;2022-09-04T05:51:23;12.50;;;10.25;;
5319;SDS011;2682;49.800;9.990;2022-09-04T05:54:00;12.25;;;10.50;;
5319;SDS011;2682;49.800;9.990;2022-09-04T05:56:40;10.75;;;9.75;;
5319;SDS011;2682;49.800;9.990;2022-09-04T06:01:58;13.75;;;12.00;;
5319;SDS011;2682;49.800;9.990;2022-09-04T06:04:38;11.25;;;10.75;;
5319;SDS011;2682;49.800;9.990;2022-09-04T06:07:16;9.00;;;8.00;;
5319;SDS011;2682;49.800;9.990;2022-09-04T06:09:50;10.00;;;9.75;;
5319;SDS011;2682;49.800;9.990;2022-09-04T06:12:26;12.00;;;11.25;;
5319;SDS011;2682;49.800;9.990;2022-09-04T06:17:41;8.00;;;8.00;;
5319;SDS011;2682;49.800;9.990;2022-09-04T06:20:16;11.00;;;9.75;;
5319;SDS011;2682;49.800;9.990;2022-09-04T06:23:02;10.50;;;9.75;;
5319;SDS011;2682;49.800;9.990;2022-09-04T06:28:23;8.50;;;8.00;;
5319;SDS011;2682;49.800;9.990;2022-09-04T06:30:56;10.25;;;8.00;;
5319;SDS011;2682;49.800;9.990;2022-09-04T06:33:33;9.50;;;8.75;;
5319;SDS011;2682;49.800;9.990;2022-09-04T06:36:07;10.50;;;9.75;;
5319;SDS011;2682;49.800;9.990;2022-09-04T06:38:47;9.75;;;9.25;;
5319;SDS011;2682;49.800;9.990;2022-09-04T06:41:22;10.50;;;10.50;;
5319;SDS011;2682;49.800;9.990;2022-09-04T06:43:54;10.75;;;10.25;;
5319;SDS011;2682;49.800;9.990;2022-09-04T06:46:26;10.00;;;9.75;;
5319;SDS011;2682;49.800;9.990;2022-09-04T06:48:59;10.75;;;10.75;;
5319;SDS011;2682;49.800;9.990;2022-09-04T06:54:17;12.75;;;12.50;;
5319;SDS011;2682;49.800;9.990;2022-09-04T06:56:48;13.75;;;13.75;;
5319;SDS011;2682;49.800;9.990;2022-09-04T06:59:22;11.00;;;11.00;;
5319;SDS011;2682;49.800;9.990;2022-09-04T07:01:55;11.00;;;11.00;;
5319;SDS011;2682;49.800;9.990;2022-09-04T07:04:29;14.75;;;12.50;;
5319;SDS011;2682;49.800;9.990;2022-09-04T07:07:02;13.25;;;13.25;;
5319;SDS011;2682;49.800;9.990;2022-09-04T07:09:34;16.25;;;14.75;;
5319;SDS011;2682;49.800;9.990;2022-09-04T07:14:48;14.00;;;13.50;;
5319;SDS011;2682;49.800;9.990;2022-09-04T07:17:18;16.75;;;14.25;;
5319;SDS011;2682;49.800;9.990;2022-09-04T07:19:53;15.25;;;14.25;;
5319;SDS011;2682;49.800;9.990;2022-09-04T07:22:37;16.50;;;15.00;;
5319;SDS011;2682;49.800;9.990;2022-09-04T07:25:12;15.00;;;14.00;;
5319;SDS011;2682;49.800;9.990;2022-09-04T07:30:27;14.50;;;14.00;;
5319;SDS011;2682;49.800;9.990;2022-09-04T07:32:55;14.80;;;14.80;;
5319;SDS011;2682;49.800;9.990;2022-09-04T07:35:25;14.80;;;14.60;;
5319;SDS011;2682;49.800;9.990;2022-09-04T07:37:56;16.00;;;15.00;;
5319;SDS011;2682;49.800;9.990;2022-09-04T07:40:28;15.60;;;14.80;;
5319;SDS011;2682;49.800;9.990;2022-09-04T07:42:56;15.60;;;14.00;;
5319;SDS011;2682;49.800;9.990;2022-09-04T07:45:27;17.20;;;16.80;;
5319;SDS011;2682;49.800;9.990;2022-09-04T07:47:56;15.20;;;13.20;;
5319;SDS011;2682;49.800;9.990;2022-09-04T07:50:28;16.80;;;15.40;;
5319;SDS011;2682;49.800;9.990;2022-09-04T07:53:01;17.60;;;16.40;;
5319;SDS011;2682;49.800;9.990;2022-09-04T07:55:35;14.40;;;14.00;;
5319;SDS011;2682;49.800;9.990;2022-09-04T07:58:15;16.40;;;15.60;;
5319;SDS011;2682;49.800;9.990;2022-09-04T08:00:48;13.60;;;13.00;;
5319;SDS011;2682;49.800;9.990;2022-09-04T08:03:21;16.00;;;15.60;;
5319;SDS011;2682;49.800;9.990;2022-09-04T08:05:53;16.00;;;15.00;;
5319;SDS011;2682;49.800;9.990;2022-09-04T08:08:43;14.00;;;13.60;;
5319;SDS011;2682;49.800;9.990;2022-09-04T08:11:18;12.80;;;11.80;;
5319;SDS011;2682;49.800;9.990;2022-09-04T08:14:03;12.25;;;11.75;;
5319;SDS011;2682;49.800;9.990;2022-09-04T08:16:35;15.40;;;15.00;;
5319;SDS011;2682;49.800;9.990;2022-09-04T08:19:10;12.40;;;11.20;;
5319;SDS011;2682;49.800;9.990;2022-09-04T08:21:41;11.20;;;11.00;;
5319;SDS011;2682;49.800;9.990;2022-09-04T08:24:16;12.60;;;12.20;;
5319;SDS011;2682;49.800;9.990;2022-09-04T08:26:48;14.40;;;11.00;;
5319;SDS011;2682;49.800;9.990;2022-09-04T08:29:30;12.40;;;11.20;;
5319;SDS011;2682;49.800;9.990;2022-09-04T08:32:01;13.40;;;13.40;;
5319;SDS011;2682;49.800;9.990;2022-09-04T08:34:41;11.80;;;11.00;;
5319;SDS011;2682;49.800;9.990;2022-09-04T08:37:12;12.25;;;10.50;;
5319;SDS011;2682;49.800;9.990;2022-09-04T08:39:44;12.60;;;11.60;;
5319;SDS011;2682;49.800;9.990;2022-09-04T08:42:27;13.20;;;12.20;;
5319;SDS011;2682;49.800;9.990;2022-09-04T08:48:00;10.60;;;10.60;;
5319;SDS011;2682;49.800;9.990;2022-09-04T08:50:37;10.20;;;10.00;;
5319;SDS011;2682;49.800;9.990;2022-09-04T08:53:15;13.20;;;11.00;;
5319;SDS011;2682;49.800;9.990;2022-09-04T08:55:53;10.60;;;10.00;;
5319;SDS011;2682;49.800;9.990;2022-09-04T09:01:20;9.00;;;8.00;;
5319;SDS011;2682;49.800;9.990;2022-09-04T09:03:56;7.25;;;7.25;;
5319;SDS011;2682;49.800;9.990;2022-09-04T09:14:58;6.50;;;5.25;;
5319;SDS011;2682;49.800;9.990;2022-09-04T09:17:37;4.25;;;4.00;;
5319;SDS011;2682;49.800;9.990;2022-09-04T09:25:40;4.50;;;4.50;;
5319;SDS011;2682;49.800;9.990;2022-09-04T09:28:36;5.50;;;5.25;;
5319;SDS011;2682;49.800;9.990;2022-09-04T09:34:09;6.75;;;5.75;;
5319;SDS011;2682;49.800;9.990;2022-09-04T09:39:40;4.50;;;4.00;;
5319;SDS011;2682;49.800;9.990;2022-09-04T09:45:05;4.50;;;4.50;;
5319;SDS011;2682;49.800;9.990;2022-09-04T09:50:24;5.00;;;4.75;;
5319;SDS011;2682;49.800;9.990;2022-09-04T09:53:12;5.00;;;5.00;;
5319;SDS011;2682;49.800;9.990;2022-09-04T09:55:52;5.50;;;5.00;;
5319;SDS011;2682;49.800;9.990;2022-09-04T10:01:21;4.50;;;4.50;;
5319;SDS011;2682;49.800;9.990;2022-09-04T10:06:50;4.50;;;4.50;;
5319;SDS011;2682;49.800;9.990;2022-09-04T10:12:28;4.25;;;3.25;;
5319;SDS011;2682;49.800;9.990;2022-09-04T10:20:34;3.50;;;3.50;;
5319;SDS011;2682;49.800;9.990;2022-09-04T10:23:17;3.75;;;3.75;;
5319;SDS011;2682;49.800;9.990;2022-09-04T10:25:49;4.00;;;4.00;;
5319;SDS011;2682;49.800;9.990;2022-09-04T10:28:28;3.00;;;3.00;;
5319;SDS011;2682;49.800;9.990;2022-09-04T10:31:10;4.00;;;4.00;;
5319;SDS011;2682;49.800;9.990;2022-09-04T10:33:44;3.00;;;3.00;;
5319;SDS011;2682;49.800;9.990;2022-09-04T10:36:21;3.00;;;3.00;;
5319;SDS011;2682;49.800;9.990;2022-09-04T10:39:01;3.00;;;3.00;;
5319;SDS011;2682;49.800;9.990;2022-09-04T10:42:00;3.60;;;3.60;;
5319;SDS011;2682;49.800;9.990;2022-09-04T10:44:39;3.20;;;3.00;;
5319;SDS011;2682;49.800;9.990;2022-09-04T10:47:14;2.75;;;2.75;;
5319;SDS011;2682;49.800;9.990;2022-09-04T10:55:19;2.20;;;2.20;;
5319;SDS011;2682;49.800;9.990;2022-09-04T11:00:41;1.00;;;1.00;;
5319;SDS011;2682;49.800;9.990;2022-09-04T11:03:24;2.80;;;2.80;;
5319;SDS011;2682;49.800;9.990;2022-09-04T11:06:08;1.80;;;1.80;;
5319;SDS011;2682;49.800;9.990;2022-09-04T11:11:38;2.80;;;2.80;;
5319;SDS011;2682;49.800;9.990;2022-09-04T11:14:22;4.00;;;3.80;;
5319;SDS011;2682;49.800;9.990;2022-09-04T11:23:00;2.00;;;2.00;;
5319;SDS011;2682;49.800;9.990;2022-09-04T11:25:59;2.20;;;2.20;;
5319;SDS011;2682;49.800;9.990;2022-09-04T11:28:41;2.00;;;2.00;;
5319;SDS011;2682;49.800;9.990;2022-09-04T11:31:23;3.00;;;2.20;;
5319;SDS011;2682;49.800;9.990;2022-09-04T11:39:45;2.00;;;2.00;;
5319;SDS011;2682;49.800;9.990;2022-09-04T11:42:24;2.00;;;2.00;;
5319;SDS011;2682;49.800;9.990;2022-09-04T11:45:08;2.00;;;2.00;;
5319;SDS011;2682;49.800;9.990;2022-09-04T11:50:25;1.40;;;1.40;;
5319;SDS011;2682;49.800;9.990;2022-09-04T11:53:03;2.00;;;2.00;;
5319;SDS011;2682;49.800;9.990;2022-09-04T11:55:41;2.00;;;2.00;;
5319;SDS011;2682;49.800;9.990;2022-09-04T11:58:25;1.60;;;1.60;;
5319;SDS011;2682;49.800;9.990;2022-09-04T12:00:58;2.00;;;2.00;;
5319;SDS011;2682;49.800;9.990;2022-09-04T12:03:33;2.00;;;2.00;;
5319;SDS011;2682;49.800;9.990;2022-09-04T12:06:07;1.40;;;1.40;;
5319;SDS011;2682;49.800;9.990;2022-09-04T12:08:45;1.20;;;1.20;;
5319;SDS011;2682;49.800;9.990;2022-09-04T12:14:07;0.80;;;0.80;;
5319;SDS011;2682;49.800;9.990;2022-09-04T12:19:47;1.00;;;1.00;;
5319;SDS011;2682;49.800;9.990;2022-09-04T12:22:33;1.40;;;0.60;;
5319;SDS011;2682;49.800;9.990;2022-09-04T12:25:11;1.00;;;1.00;;
5319;SDS011;2682;49.800;9.990;2022-09-04T12:27:55;1.40;;;1.40;;
5319;SDS011;2682;49.800;9.990;2022-09-04T12:30:25;1.00;;;1.00;;
5319;SDS011;2682;49.800;9.990;2022-09-04T12:33:03;1.00;;;1.00;;
5319;SDS011;2682;49.800;9.990;2022-09-04T12:41:13;1.40;;;1.40;;
5319;SDS011;2682;49.800;9.990;2022-09-04T12:43:43;1.20;;;0.60;;
5319;SDS011;2682;49.800;9.990;2022-09-04T12:46:19;1.20;;;1.20;;
5319;SDS011;2682;49.800;9.990;2022-09-04T12:48:55;1.20;;;1.00;;
5319;SDS011;2682;49.800;9.990;2022-09-04T12:51:24;1.80;;;1.00;;
5319;SDS011;2682;49.800;9.990;2022-09-04T12:54:03;1.00;;;1.00;;
5319;SDS011;2682;49.800;9.990;2022-09-04T12:56:40;1.00;;;1.00;;
5319;SDS011;2682;49.800;9.990;2022-09-04T12:59:17;1.00;;;1.00;;
5319;SDS011;2682;49.800;9.990;2022-09-04T13:01:49;1.00;;;1.00;;
5319;SDS011;2682;49.800;9.990;2022-09-04T13:04:22;1.60;;;1.60;;
5319;SDS011;2682;49.800;9.990;2022-09-04T13:06:52;1.60;;;1.60;;
5319;SDS011;2682;49.800;9.990;2022-09-04T13:09:24;1.20;;;1.20;;
5319;SDS011;2682;49.800;9.990;2022-09-04T13:11:58;1.00;;;1.00;;
5319;SDS011;2682;49.800;9.990;2022-09-04T13:14:35;1.60;;;1.20;;
5319;SDS011;2682;49.800;9.990;2022-09-04T13:17:06;1.00;;;1.00;;
5319;SDS011;2682;49.800;9.990;2022-09-04T13:19:40;1.00;;;1.00;;
5319;SDS011;2682;49.800;9.990;2022-09-04T13:22:13;2.00;;;2.00;;
5319;SDS011;2682;49.800;9.990;2022-09-04T13:24:46;1.60;;;1.00;;
5319;SDS011;2682;49.800;9.990;2022-09-04T13:27:20;1.80;;;1.80;;
5319;SDS011;2682;49.800;9.990;2022-09-04T13:29:55;1.00;;;1.00;;
5319;SDS011;2682;49.800;9.990;2022-09-04T13:32:38;1.00;;;1.00;;
5319;SDS011;2682;49.800;9.990;2022-09-04T13:35:11;1.40;;;1.40;;
5319;SDS011;2682;49.800;9.990;2022-09-04T13:37:45;1.40;;;1.00;;
5319;SDS011;2682;49.800;9.990;2022-09-04T13:40:20;1.00;;;1.00;;
5319;SDS011;2682;49.800;9.990;2022-09-04T13:45:39;1.00;;;1.00;;
5319;SDS011;2682;49.800;9.990;2022-09-04T13:48:08;1.60;;;1.60;;
5319;SDS011;2682;49.800;9.990;2022-09-04T13:50:38;0.80;;;0.60;;
5319;SDS011;2682;49.800;9.990;2022-09-04T13:53:09;2.00;;;1.00;;
5319;SDS011;2682;49.800;9.990;2022-09-04T13:55:40;1.75;;;1.75;;
5319;SDS011;2682;49.800;9.990;2022-09-04T13:58:10;1.00;;;1.00;;
5319;SDS011;2682;49.800;9.990;2022-09-04T14:00:42;1.20;;;1.20;;
5319;SDS011;2682;49.800;9.990;2022-09-04T14:03:11;1.00;;;1.00;;
5319;SDS011;2682;49.800;9.990;2022-09-04T14:05:39;1.50;;;1.50;;
5319;SDS011;2682;49.800;9.990;2022-09-04T14:08:08;2.00;;;2.00;;
5319;SDS011;2682;49.800;9.990;2022-09-04T14:13:42;2.00;;;2.00;;
5319;SDS011;2682;49.800;9.990;2022-09-04T14:16:18;2.50;;;2.50;;
5319;SDS011;2682;49.800;9.990;2022-09-04T14:18:58;2.25;;;2.25;;
5319;SDS011;2682;49.800;9.990;2022-09-04T14:21:31;3.00;;;3.00;;
5319;SDS011;2682;49.800;9.990;2022-09-04T14:24:03;2.50;;;2.50;;
5319;SDS011;2682;49.800;9.990;2022-09-04T14:26:34;3.50;;;3.00;;
5319;SDS011;2682;49.800;9.990;2022-09-04T14:29:06;3.00;;;3.00;;
5319;SDS011;2682;49.800;9.990;2022-09-04T14:31:43;2.00;;;2.00;;
5319;SDS011;2682;49.800;9.990;2022-09-04T14:34:15;2.00;;;2.00;;
5319;SDS011;2682;49.800;9.990;2022-09-04T14:36:49;3.00;;;3.00;;
5319;SDS011;2682;49.800;9.990;2022-09-04T14:39:21;3.00;;;3.00;;
5319;SDS011;2682;49.800;9.990;2022-09-04T14:44:40;3.00;;;2.75;;
5319;SDS011;2682;49.800;9.990;2022-09-04T14:47:14;2.00;;;2.00;;
5319;SDS011;2682;49.800;9.990;2022-09-04T14:49:49;3.00;;;3.00;;
5319;SDS011;2682;49.800;9.990;2022-09-04T14:52:17;2.50;;;2.50;;
5319;SDS011;2682;49.800;9.990;2022-09-04T14:54:45;3.00;;;3.00;;
5319;SDS011;2682;49.800;9.990;2022-09-04T14:57:17;2.75;;;2.75;;
5319;SDS011;2682;49.800;9.990;2022-09-04T14:59:47;2.50;;;2.50;;
5319;SDS011;2682;49.800;9.990;2022-09-04T15:02:20;3.00;;;3.00;;
5319;SDS011;2682;49.800;9.990;2022-09-04T15:04:49;3.00;;;3.00;;
5319;SDS011;2682;49.800;9.990;2022-09-04T15:07:20;4.00;;;3.75;;
5319;SDS011;2682;49.800;9.990;2022-09-04T15:09:53;2.25;;;2.25;;
5319;SDS011;2682;49.800;9.990;2022-09-04T15:12:32;2.00;;;2.00;;
5319;SDS011;2682;49.800;9.990;2022-09-04T15:15:02;4.00;;;4.00;;
5319;SDS011;2682;49.800;9.990;2022-09-04T15:17:33;3.00;;;2.25;;
5319;SDS011;2682;49.800;9.990;2022-09-04T15:20:03;2.00;;;2.00;;
5319;SDS011;2682;49.800;9.990;2022-09-04T15:22:35;2.00;;;2.00;;
5319;SDS011;2682;49.800;9.990;2022-09-04T15:25:04;2.25;;;2.25;;
5319;SDS011;2682;49.800;9.990;2022-09-04T15:27:31;3.00;;;3.00;;
5319;SDS011;2682;49.800;9.990;2022-09-04T15:30:03;2.00;;;2.00;;
5319;SDS011;2682;49.800;9.990;2022-09-04T15:32:32;2.25;;;2.25;;
5319;SDS011;2682;49.800;9.990;2022-09-04T15:35:10;3.00;;;3.00;;
5319;SDS011;2682;49.800;9.990;2022-09-04T15:37:39;2.00;;;2.00;;
5319;SDS011;2682;49.800;9.990;2022-09-04T15:40:08;2.75;;;2.75;;
5319;SDS011;2682;49.800;9.990;2022-09-04T15:42:42;2.00;;;2.00;;
5319;SDS011;2682;49.800;9.990;2022-09-04T15:45:13;2.75;;;2.75;;
5319;SDS011;2682;49.800;9.990;2022-09-04T15:47:45;2.50;;;2.50;;
5319;SDS011;2682;49.800;9.990;2022-09-04T15:50:21;2.25;;;2.25;;
5319;SDS011;2682;49.800;9.990;2022-09-04T15:52:51;3.25;;;3.00;;
5319;SDS011;2682;49.800;9.990;2022-09-04T15:55:20;2.00;;;2.00;;
5319;SDS011;2682;49.800;9.990;2022-09-04T15:57:52;2.00;;;2.00;;
5319;SDS011;2682;49.800;9.990;2022-09-04T16:00:24;3.00;;;3.00;;
5319;SDS011;2682;49.800;9.990;2022-09-04T16:02:53;2.75;;;2.75;;
5319;SDS011;2682;49.800;9.990;2022-09-04T16:05:24;2.00;;;2.00;;
5319;SDS011;2682;49.800;9.990;2022-09-04T16:07:59;2.25;;;2.25;;
5319;SDS011;2682;49.800;9.990;2022-09-04T16:10:30;2.50;;;2.50;;
5319;SDS011;2682;49.800;9.990;2022-09-04T16:13:24;2.50;;;2.50;;
5319;SDS011;2682;49.800;9.990;2022-09-04T16:15:51;2.00;;;2.00;;
5319;SDS011;2682;49.800;9.990;2022-09-04T16:18:20;2.00;;;2.00;;
5319;SDS011;2682;49.800;9.990;2022-09-04T16:21:00;1.50;;;1.50;;
5319;SDS011;2682;49.800;9.990;2022-09-04T16:23:30;3.25;;;2.00;;
5319;SDS011;2682;49.800;9.990;2022-09-04T16:25:57;1.00;;;1.00;;
5319;SDS011;2682;49.800;9.990;2022-09-04T16:28:34;2.00;;;2.00;;
5319;SDS011;2682;49.800;9.990;2022-09-04T16:31:04;3.25;;;3.00;;
5319;SDS011;2682;49.800;9.990;2022-09-04T16:33:31;2.75;;;2.25;;
5319;SDS011;2682;49.800;9.990;2022-09-04T16:36:01;1.75;;;1.75;;
5319;SDS011;2682;49.800;9.990;2022-09-04T16:38:31;1.25;;;1.25;;
5319;SDS011;2682;49.800;9.990;2022-09-04T16:41:06;1.50;;;1.50;;
5319;SDS011;2682;49.800;9.990;2022-09-04T16:43:35;2.00;;;2.00;;
5319;SDS011;2682;49.800;9.990;2022-09-04T16:46:04;2.00;;;2.00;;
5319;SDS011;2682;49.800;9.990;2022-09-04T16:48:34;2.00;;;2.00;;
5319;SDS011;2682;49.800;9.990;2022-09-04T16:51:04;1.50;;;1.00;;
5319;SDS011;2682;49.800;9.990;2022-09-04T16:53:34;2.00;;;2.00;;
5319;SDS011;2682;49.800;9.990;2022-09-04T16:56:04;2.00;;;2.00;;
5319;SDS011;2682;49.800;9.990;2022-09-04T16:58:35;2.00;;;2.00;;
5319;SDS011;2682;49.800;9.990;2022-09-04T17:01:05;2.00;;;2.00;;
5319;SDS011;2682;49.800;9.990;2022-09-04T17:03:38;2.00;;;2.00;;
5319;SDS011;2682;49.800;9.990;2022-09-04T17:06:07;3.00;;;3.00;;
5319;SDS011;2682;49.800;9.990;2022-09-04T17:08:46;1.50;;;1.50;;
5319;SDS011;2682;49.800;9.990;2022-09-04T17:11:16;1.00;;;1.00;;
5319;SDS011;2682;49.800;9.990;2022-09-04T17:13:47;2.00;;;2.00;;
5319;SDS011;2682;49.800;9.990;2022-09-04T17:16:16;2.75;;;2.25;;
5319;SDS011;2682;49.800;9.990;2022-09-04T17:18:44;1.25;;;1.25;;
5319;SDS011;2682;49.800;9.990;2022-09-04T17:21:14;2.00;;;2.00;;
5319;SDS011;2682;49.800;9.990;2022-09-04T17:24:04;3.00;;;2.00;;
5319;SDS011;2682;49.800;9.990;2022-09-04T17:26:34;2.00;;;2.00;;
5319;SDS011;2682;49.800;9.990;2022-09-04T17:29:04;3.00;;;2.00;;
5319;SDS011;2682;49.800;9.990;2022-09-04T17:31:35;1.00;;;1.00;;
5319;SDS011;2682;49.800;9.990;2022-09-04T17:34:08;1.50;;;1.50;;
5319;SDS011;2682;49.800;9.990;2022-09-04T17:36:38;2.00;;;2.00;;
5319;SDS011;2682;49.800;9.990;2022-09-04T17:39:08;3.00;;;2.50;;
5319;SDS011;2682;49.800;9.990;2022-09-04T17:41:38;2.00;;;2.00;;